Time;durP1;ratioP1;P1;durP2;ratioP2;P2;SDS_P1;SDS_P2;PMS_P1;PMS_P2;Temp;Humidity;BMP_temperature;BMP_pressure;BME280_temperature;BME280_humidity;BME280_pressure;Samples;Min_cycle;Max_cycle;Signal;HPM_P1;HPM_P2
2023/12/16 00:02:05;;;;;;;3.63;3.33;;;4.70;61.00;;;;;;5037133;28;20040;-85
2023/12/16 00:04:30;;;;;;;3.00;2.70;;;4.80;61.10;;;;;;5037047;28;20029;-86
2023/12/16 00:06:56;;;;;;;3.50;2.95;;;4.80;61.10;;;;;;5038412;28;20029;-85
2023/12/16 00:09:22;;;;;;;3.17;2.75;;;4.80;61.00;;;;;;5024682;28;20053;-85
2023/12/16 00:11:48;;;;;;;2.70;2.50;;;4.70;61.00;;;;;;5018743;28;20113;-85
2023/12/16 00:14:13;;;;;;;3.03;2.72;;;4.70;61.00;;;;;;5036893;28;20462;-85
2023/12/16 00:16:45;;;;;;;3.42;2.83;;;4.80;61.00;;;;;;5036690;28;20033;-85
2023/12/16 00:19:11;;;;;;;2.95;2.63;;;4.70;60.90;;;;;;5036641;28;20029;-85
2023/12/16 00:21:37;;;;;;;2.92;2.60;;;4.70;60.90;;;;;;5038019;28;20432;-85
2023/12/16 00:24:06;;;;;;;3.00;2.70;;;4.70;60.90;;;;;;5004795;28;20032;-85
2023/12/16 00:26:32;;;;;;;2.80;2.50;;;4.70;61.00;;;;;;5019076;28;20040;-84
2023/12/16 00:28:58;;;;;;;3.05;2.75;;;4.70;60.90;;;;;;5019295;28;20025;-84
2023/12/16 00:31:24;;;;;;;2.92;2.72;;;4.70;60.90;;;;;;5019527;28;20037;-84
2023/12/16 00:33:49;;;;;;;3.05;2.72;;;4.70;60.90;;;;;;5036331;28;20036;-84
2023/12/16 00:36:16;;;;;;;2.97;2.67;;;4.70;60.90;;;;;;5018578;28;20041;-85
2023/12/16 00:38:42;;;;;;;2.90;2.70;;;4.80;60.90;;;;;;5018766;28;20033;-84
2023/12/16 00:41:07;;;;;;;3.15;2.85;;;4.80;60.90;;;;;;5018687;28;20422;-85
2023/12/16 00:43:33;;;;;;;3.22;2.92;;;4.80;60.90;;;;;;5018323;28;20025;-84
2023/12/16 00:45:59;;;;;;;3.78;2.88;;;4.80;60.90;;;;;;5017417;28;20116;-85
2023/12/16 00:48:25;;;;;;;3.25;2.95;;;4.80;60.90;;;;;;5035269;28;20071;-86
2023/12/16 00:50:51;;;;;;;3.53;2.90;;;4.80;60.80;;;;;;5036041;28;20049;-86
2023/12/16 00:53:16;;;;;;;3.25;2.72;;;4.70;60.90;;;;;;5035914;28;20128;-86
2023/12/16 00:55:42;;;;;;;3.20;2.65;;;4.80;60.80;;;;;;5018727;28;20540;-85
2023/12/16 00:58:09;;;;;;;2.75;2.55;;;4.80;60.80;;;;;;5040749;28;20113;-85
2023/12/16 01:00:34;;;;;;;2.75;2.50;;;4.80;60.80;;;;;;5021591;28;20057;-85
2023/12/16 01:03:00;;;;;;;4.47;2.90;;;4.70;60.80;;;;;;5018210;28;20464;-84
2023/12/16 01:05:26;;;;;;;3.60;2.80;;;4.80;60.80;;;;;;5021813;28;20430;-86
2023/12/16 01:07:52;;;;;;;2.78;2.50;;;4.70;60.80;;;;;;5020627;28;20083;-85
2023/12/16 01:10:18;;;;;;;2.60;2.40;;;4.70;60.80;;;;;;5018791;28;20112;-84
2023/12/16 01:12:45;;;;;;;2.88;2.60;;;4.70;60.80;;;;;;5018644;28;20471;-84
2023/12/16 01:15:11;;;;;;;3.00;2.70;;;4.70;60.80;;;;;;5036256;28;20026;-84
2023/12/16 01:17:37;;;;;;;3.03;2.70;;;4.70;60.80;;;;;;5036075;28;20056;-86
2023/12/16 01:20:03;;;;;;;2.75;2.55;;;4.70;60.80;;;;;;5036831;28;20033;-83
2023/12/16 01:22:28;;;;;;;2.92;2.63;;;4.80;60.80;;;;;;5035892;28;20497;-84
2023/12/16 01:24:54;;;;;;;3.00;2.70;;;4.80;60.80;;;;;;5016871;28;20025;-86
2023/12/16 01:27:20;;;;;;;3.00;2.70;;;4.80;60.80;;;;;;5035394;28;20025;-85
2023/12/16 01:29:46;;;;;;;3.03;2.72;;;4.80;60.80;;;;;;5017149;28;20026;-85
2023/12/16 01:32:11;;;;;;;3.60;2.90;;;4.80;60.70;;;;;;5035314;28;20083;-86
2023/12/16 01:34:37;;;;;;;2.95;2.65;;;4.80;60.70;;;;;;5017420;28;20038;-86
2023/12/16 01:37:03;;;;;;;2.90;2.70;;;4.70;60.70;;;;;;5016820;28;20049;-85
2023/12/16 01:39:29;;;;;;;3.30;2.65;;;4.70;60.70;;;;;;5035692;28;20443;-85
2023/12/16 01:41:55;;;;;;;2.85;2.55;;;4.70;60.80;;;;;;5035060;28;20033;-85
2023/12/16 01:44:21;;;;;;;3.03;2.72;;;4.70;60.80;;;;;;5034974;28;20033;-86
2023/12/16 01:46:47;;;;;;;3.30;2.95;;;4.70;60.80;;;;;;5035156;28;20047;-85
2023/12/16 01:49:12;;;;;;;3.13;2.83;;;4.80;60.80;;;;;;5034084;28;20032;-86
2023/12/16 01:51:38;;;;;;;2.92;2.58;;;4.80;60.80;;;;;;5029024;28;20025;-86
2023/12/16 01:54:06;;;;;;;2.88;2.60;;;4.80;60.80;;;;;;5016794;28;20487;-84
2023/12/16 01:56:33;;;;;;;3.10;2.80;;;4.80;60.80;;;;;;5017402;28;20068;-86
2023/12/16 01:58:59;;;;;;;3.17;2.83;;;4.80;60.70;;;;;;5034628;28;20496;-86
2023/12/16 02:01:25;;;;;;;2.58;2.38;;;4.80;60.70;;;;;;5034787;28;20033;-85
2023/12/16 02:03:51;;;;;;;2.70;2.50;;;4.80;60.70;;;;;;5016693;28;20025;-85
2023/12/16 02:06:18;;;;;;;3.00;2.70;;;4.80;60.70;;;;;;5034594;28;20033;-85
2023/12/16 02:08:44;;;;;;;2.92;2.67;;;4.80;60.60;;;;;;5034989;28;20519;-86
2023/12/16 02:11:12;;;;;;;3.30;3.00;;;4.80;60.60;;;;;;5017002;28;20025;-88
2023/12/16 02:13:37;;;;;;;2.70;2.50;;;4.80;60.60;;;;;;5034388;28;20021;-84
2023/12/16 02:16:04;;;;;;;2.95;2.58;;;4.70;60.60;;;;;;5020340;28;20037;-86
2023/12/16 02:18:30;;;;;;;2.97;2.45;;;4.80;60.60;;;;;;5035380;28;20037;-85
2023/12/16 02:20:56;;;;;;;3.05;2.75;;;4.80;60.60;;;;;;5034355;28;20028;-87
2023/12/16 02:23:22;;;;;;;2.80;2.50;;;4.70;60.60;;;;;;5016804;28;20053;-85
2023/12/16 02:25:48;;;;;;;3.22;2.60;;;4.70;60.60;;;;;;5034211;28;20034;-85
2023/12/16 02:28:13;;;;;;;2.90;2.70;;;4.70;60.60;;;;;;5034104;28;20451;-86
2023/12/16 02:30:39;;;;;;;2.83;2.60;;;4.80;60.60;;;;;;5033736;28;20360;-85
2023/12/16 02:33:05;;;;;;;2.75;2.53;;;4.80;60.60;;;;;;5016214;28;20383;-86
2023/12/16 02:35:31;;;;;;;2.60;2.40;;;4.80;60.50;;;;;;5033966;28;20041;-85
2023/12/16 02:37:56;;;;;;;2.60;2.40;;;4.80;60.50;;;;;;5036647;28;20494;-86
2023/12/16 02:40:22;;;;;;;3.55;2.75;;;4.80;60.50;;;;;;5038602;28;20033;-88
2023/12/16 02:42:48;;;;;;;2.70;2.40;;;4.70;60.50;;;;;;5019799;28;20033;-85
2023/12/16 02:45:14;;;;;;;2.83;2.40;;;4.70;60.50;;;;;;5039915;28;20077;-86
2023/12/16 02:47:39;;;;;;;2.60;2.40;;;4.80;60.50;;;;;;5020353;28;20025;-86
2023/12/16 02:50:07;;;;;;;2.95;2.60;;;4.70;60.50;;;;;;5036277;28;20027;-86
2023/12/16 02:52:33;;;;;;;3.50;2.67;;;4.80;60.50;;;;;;5017159;28;20116;-86
2023/12/16 02:54:59;;;;;;;3.00;2.70;;;4.80;60.40;;;;;;5017081;28;20064;-85
2023/12/16 02:57:24;;;;;;;2.70;2.50;;;4.70;60.30;;;;;;5034082;28;20040;-85
2023/12/16 02:59:50;;;;;;;2.88;2.58;;;4.70;60.40;;;;;;5034789;28;20026;-85
2023/12/16 03:02:16;;;;;;;2.97;2.65;;;4.70;60.40;;;;;;5034172;28;20045;-84
2023/12/16 03:04:42;;;;;;;3.33;3.03;;;4.70;60.50;;;;;;5034588;28;20072;-85
2023/12/16 03:07:08;;;;;;;2.72;2.53;;;4.70;60.40;;;;;;5016306;28;20045;-85
2023/12/16 03:09:34;;;;;;;3.17;2.88;;;4.70;61.00;;;;;;5033485;28;20029;-85
2023/12/16 03:12:00;;;;;;;3.25;2.75;;;4.70;60.40;;;;;;5014162;28;20117;-85
2023/12/16 03:14:27;;;;;;;3.13;2.67;;;4.70;60.40;;;;;;5014674;28;20026;-86
2023/12/16 03:16:52;;;;;;;2.72;2.47;;;4.70;60.40;;;;;;5014185;28;20033;-86
2023/12/16 03:19:18;;;;;;;2.75;2.55;;;4.70;60.30;;;;;;5015334;28;20033;-86
2023/12/16 03:21:44;;;;;;;2.88;2.58;;;4.80;60.40;;;;;;5033580;28;20107;-85
2023/12/16 03:24:10;;;;;;;2.78;2.50;;;4.70;60.30;;;;;;5016329;28;20472;-87
2023/12/16 03:26:36;;;;;;;3.00;2.70;;;4.80;60.30;;;;;;5033712;28;20033;-85
2023/12/16 03:29:02;;;;;;;2.75;2.55;;;4.70;60.20;;;;;;5033404;28;20475;-86
2023/12/16 03:31:27;;;;;;;3.10;2.80;;;4.80;60.20;;;;;;5033725;28;20475;-86
2023/12/16 03:33:53;;;;;;;3.13;2.70;;;4.70;60.20;;;;;;5033464;28;20088;-85
2023/12/16 03:36:19;;;;;;;3.38;3.08;;;4.80;60.20;;;;;;5013844;28;20052;-86
2023/12/16 03:38:45;;;;;;;3.03;2.70;;;4.80;60.30;;;;;;5015682;28;20032;-85
2023/12/16 03:41:12;;;;;;;3.30;3.00;;;4.80;60.20;;;;;;5031833;28;20025;-87
2023/12/16 03:43:38;;;;;;;3.05;2.75;;;4.80;60.20;;;;;;5033599;28;20034;-84
2023/12/16 03:46:04;;;;;;;3.05;2.80;;;4.80;60.30;;;;;;5033556;28;20026;-85
2023/12/16 03:48:30;;;;;;;2.88;2.58;;;4.80;60.20;;;;;;5016073;28;20073;-85
2023/12/16 03:50:56;;;;;;;3.10;2.80;;;4.80;60.20;;;;;;5033135;28;20439;-84
2023/12/16 03:53:22;;;;;;;3.08;2.78;;;4.80;60.20;;;;;;5033442;28;20046;-85
2023/12/16 03:55:47;;;;;;;3.53;3.10;;;4.80;60.30;;;;;;5033421;28;20064;-85
2023/12/16 03:58:13;;;;;;;3.55;2.85;;;4.80;60.20;;;;;;5015549;28;20061;-86
2023/12/16 04:00:39;;;;;;;3.20;2.63;;;4.80;60.20;;;;;;5032562;28;20033;-86
2023/12/16 04:03:05;;;;;;;4.82;2.85;;;4.80;60.30;;;;;;5014616;28;20029;-85
2023/12/16 04:05:31;;;;;;;3.05;2.75;;;4.80;60.30;;;;;;5016204;28;20398;-85
2023/12/16 04:07:57;;;;;;;2.80;2.60;;;4.80;60.30;;;;;;5033336;28;20476;-86
2023/12/16 04:10:23;;;;;;;3.97;2.97;;;4.80;60.30;;;;;;5015301;28;20112;-85
2023/12/16 04:12:49;;;;;;;3.33;3.03;;;4.80;60.40;;;;;;5015895;28;20459;-84
2023/12/16 04:15:14;;;;;;;5.90;3.00;;;4.80;60.40;;;;;;5015490;28;20034;-85
2023/12/16 04:17:40;;;;;;;3.22;2.72;;;4.80;60.30;;;;;;5033752;28;20061;-85
2023/12/16 04:20:06;;;;;;;3.70;2.97;;;4.80;60.30;;;;;;5039042;28;20549;-85
2023/12/16 04:22:32;;;;;;;2.97;2.70;;;4.80;60.30;;;;;;5021761;28;20053;-85
2023/12/16 04:24:58;;;;;;;2.97;2.75;;;4.80;60.40;;;;;;5041069;28;20025;-85
2023/12/16 04:27:27;;;;;;;2.75;2.55;;;4.80;60.40;;;;;;5040104;28;20387;-85
2023/12/16 04:29:53;;;;;;;3.42;3.13;;;4.80;60.50;;;;;;5021420;28;20032;-86
2023/12/16 04:32:18;;;;;;;3.75;2.80;;;4.90;60.50;;;;;;5037408;28;20096;-85
2023/12/16 04:34:44;;;;;;;2.70;2.50;;;4.90;60.50;;;;;;5037221;28;20121;-85
2023/12/16 04:37:10;;;;;;;3.38;2.80;;;4.90;60.40;;;;;;5018804;28;20044;-85
2023/12/16 04:39:37;;;;;;;3.20;2.83;;;4.90;60.50;;;;;;5019411;28;20390;-85
2023/12/16 04:42:03;;;;;;;3.38;2.97;;;4.90;60.50;;;;;;5020677;28;20125;-85
2023/12/16 04:44:29;;;;;;;3.28;2.88;;;4.90;60.50;;;;;;5018554;28;20476;-85
2023/12/16 04:46:55;;;;;;;3.10;2.75;;;4.90;60.50;;;;;;5018314;28;20111;-89
2023/12/16 04:49:21;;;;;;;3.30;3.00;;;4.90;60.50;;;;;;5036606;28;20029;-82
2023/12/16 04:51:47;;;;;;;2.97;2.72;;;4.90;60.50;;;;;;5036554;28;20030;-83
2023/12/16 04:54:13;;;;;;;3.20;2.90;;;4.90;60.60;;;;;;5037210;28;20060;-84
2023/12/16 04:56:38;;;;;;;3.80;3.08;;;4.90;60.60;;;;;;5035867;28;20049;-84
2023/12/16 04:59:04;;;;;;;3.75;3.10;;;4.90;60.60;;;;;;5036082;28;20029;-85
2023/12/16 05:01:30;;;;;;;4.07;3.00;;;4.90;60.60;;;;;;5036091;28;20431;-84
2023/12/16 05:03:56;;;;;;;3.72;3.20;;;4.90;60.60;;;;;;5037102;28;20125;-84
2023/12/16 05:06:21;;;;;;;3.72;2.95;;;4.90;60.60;;;;;;5036648;28;20026;-85
2023/12/16 05:08:47;;;;;;;3.85;3.00;;;4.90;60.70;;;;;;5036196;28;20026;-84
2023/12/16 05:11:13;;;;;;;3.40;2.78;;;4.90;60.70;;;;;;5036705;28;20033;-84
2023/12/16 05:13:39;;;;;;;3.53;3.22;;;4.90;60.70;;;;;;5045319;28;20057;-84
2023/12/16 05:16:05;;;;;;;3.95;3.00;;;4.90;60.70;;;;;;5046982;28;20063;-83
2023/12/16 05:18:31;;;;;;;3.58;3.28;;;4.90;60.80;;;;;;5044318;28;20041;-84
2023/12/16 05:20:56;;;;;;;3.75;3.10;;;4.90;60.80;;;;;;5042543;28;20104;-83
2023/12/16 05:23:22;;;;;;;3.85;3.08;;;4.90;60.80;;;;;;5018540;28;20100;-84
2023/12/16 05:25:48;;;;;;;3.45;3.00;;;4.90;60.80;;;;;;5035923;28;20064;-83
2023/12/16 05:28:14;;;;;;;3.65;3.00;;;4.90;60.80;;;;;;5035723;28;20538;-83
2023/12/16 05:30:39;;;;;;;3.47;2.97;;;4.90;60.80;;;;;;5017598;28;20107;-84
2023/12/16 05:33:05;;;;;;;3.15;2.80;;;4.90;60.80;;;;;;5035279;28;20080;-84
2023/12/16 05:35:31;;;;;;;3.65;3.28;;;4.90;60.90;;;;;;5035065;28;20029;-83
2023/12/16 05:37:57;;;;;;;4.68;3.25;;;4.90;60.90;;;;;;5035368;28;20096;-84
2023/12/16 05:40:23;;;;;;;4.00;3.10;;;4.90;60.90;;;;;;5035304;28;20423;-85
2023/12/16 05:42:49;;;;;;;2.97;2.67;;;4.90;60.90;;;;;;5017357;28;20029;-83
2023/12/16 05:45:15;;;;;;;3.55;3.00;;;4.90;60.90;;;;;;5017626;28;20084;-85
2023/12/16 05:47:41;;;;;;;2.78;2.58;;;4.90;60.90;;;;;;5034929;28;20095;-84
2023/12/16 05:50:09;;;;;;;3.92;3.10;;;4.90;60.90;;;;;;5035547;28;20036;-84
2023/12/16 05:52:38;;;;;;;3.03;2.72;;;4.90;60.90;;;;;;5034977;28;20371;-83
2023/12/16 05:55:05;;;;;;;3.40;2.85;;;4.90;60.90;;;;;;5034904;28;20029;-85
2023/12/16 05:57:31;;;;;;;3.97;3.00;;;4.90;60.90;;;;;;5034765;28;20124;-83
2023/12/16 05:59:56;;;;;;;3.15;2.70;;;4.90;60.90;;;;;;5034775;28;20048;-84
2023/12/16 06:02:22;;;;;;;4.05;3.15;;;4.90;60.90;;;;;;5022275;28;20369;-84
2023/12/16 06:04:48;;;;;;;3.65;3.00;;;4.90;60.90;;;;;;5038670;28;20379;-84
2023/12/16 06:07:14;;;;;;;3.97;3.00;;;4.90;60.90;;;;;;5039804;28;20040;-85
2023/12/16 06:09:40;;;;;;;3.13;2.83;;;4.90;61.00;;;;;;5037696;28;20029;-84
2023/12/16 06:12:06;;;;;;;4.25;3.40;;;4.90;61.00;;;;;;5039029;28;20438;-85
2023/12/16 06:14:32;;;;;;;3.47;2.88;;;4.90;61.00;;;;;;5017989;28;20036;-83
2023/12/16 06:16:58;;;;;;;3.83;3.05;;;4.90;61.10;;;;;;5016849;28;20041;-82
2023/12/16 06:19:23;;;;;;;4.25;3.42;;;4.90;61.10;;;;;;5017123;28;20029;-84
2023/12/16 06:21:49;;;;;;;4.95;3.00;;;4.90;61.10;;;;;;5035178;28;20029;-85
2023/12/16 06:24:15;;;;;;;4.38;3.65;;;4.90;61.10;;;;;;5018394;28;20080;-84
2023/12/16 06:26:40;;;;;;;4.28;3.28;;;4.90;61.10;;;;;;5035372;28;20093;-84
2023/12/16 06:29:07;;;;;;;3.88;3.00;;;4.90;61.20;;;;;;5034647;28;20028;-81
2023/12/16 06:31:33;;;;;;;4.30;3.30;;;4.90;61.20;;;;;;5015270;28;20080;-76
2023/12/16 06:33:59;;;;;;;4.10;3.30;;;4.90;61.20;;;;;;5033781;28;20068;-82
2023/12/16 06:36:25;;;;;;;3.75;3.03;;;4.90;61.10;;;;;;5033613;28;20034;-79
2023/12/16 06:38:50;;;;;;;3.90;3.20;;;5.00;61.20;;;;;;5033298;28;20033;-79
2023/12/16 06:41:16;;;;;;;4.85;3.55;;;5.00;61.20;;;;;;5033932;28;20022;-80
2023/12/16 06:43:42;;;;;;;4.55;3.58;;;5.00;61.20;;;;;;5033028;28;20096;-79
2023/12/16 06:46:08;;;;;;;5.30;4.07;;;5.00;61.10;;;;;;5033581;28;20112;-80
2023/12/16 06:48:35;;;;;;;4.22;3.45;;;5.00;61.20;;;;;;5034445;28;20063;-80
2023/12/16 06:51:00;;;;;;;5.18;3.92;;;5.00;61.20;;;;;;5037981;28;20514;-80
2023/12/16 06:53:26;;;;;;;5.78;3.75;;;5.10;61.30;;;;;;5015850;28;20128;-78
2023/12/16 06:55:53;;;;;;;5.32;3.97;;;5.00;61.80;;;;;;5015485;28;20059;-85
2023/12/16 06:58:20;;;;;;;4.85;3.60;;;5.10;64.50;;;;;;5036021;28;20099;-82
2023/12/16 07:00:46;;;;;;;4.20;3.35;;;5.20;64.60;;;;;;5034519;28;20096;-82
2023/12/16 07:03:12;;;;;;;4.95;3.40;;;5.30;64.40;;;;;;5017179;28;20472;-88
2023/12/16 07:05:38;;;;;;;4.60;3.58;;;5.40;64.20;;;;;;5015934;28;20502;-85
2023/12/16 07:08:08;;;;;;;4.45;3.40;;;5.40;64.00;;;;;;5015111;28;20038;-88
2023/12/16 07:10:34;;;;;;;5.05;3.88;;;5.50;63.80;;;;;;5015522;28;20022;-88
2023/12/16 07:13:02;;;;;;;5.88;3.85;;;5.40;63.70;;;;;;5016380;28;20084;-86
2023/12/16 07:15:28;;;;;;;4.72;3.63;;;5.40;63.60;;;;;;5016496;28;20211;-88
2023/12/16 07:17:54;;;;;;;4.40;3.70;;;5.40;63.60;;;;;;5015092;28;20057;-82
2023/12/16 07:20:19;;;;;;;4.80;3.72;;;5.40;63.60;;;;;;5033034;28;20108;-83
2023/12/16 07:22:45;;;;;;;4.65;3.72;;;5.40;63.50;;;;;;5018197;28;20068;-85
2023/12/16 07:25:11;;;;;;;4.97;4.03;;;5.40;63.40;;;;;;5016235;28;20032;-83
2023/12/16 07:27:37;;;;;;;5.00;4.10;;;5.40;63.30;;;;;;5033298;28;20101;-84
2023/12/16 07:30:04;;;;;;;6.07;4.28;;;5.40;63.30;;;;;;5033414;28;20053;-87
2023/12/16 07:32:29;;;;;;;4.63;3.92;;;5.40;63.30;;;;;;5015923;28;20025;-83
2023/12/16 07:34:56;;;;;;;5.25;4.00;;;5.50;63.30;;;;;;5033063;28;20026;-83
2023/12/16 07:37:22;;;;;;;4.93;3.70;;;5.50;63.30;;;;;;5015504;28;20402;-84
2023/12/16 07:39:47;;;;;;;5.72;4.22;;;5.50;63.30;;;;;;5015406;28;20029;-84
2023/12/16 07:42:13;;;;;;;5.78;4.32;;;5.50;63.20;;;;;;5033790;28;20057;-83
2023/12/16 07:44:39;;;;;;;5.88;4.25;;;5.50;63.70;;;;;;5021826;28;20049;-86
2023/12/16 07:47:05;;;;;;;6.53;4.20;;;5.60;63.10;;;;;;5023420;28;20030;-85
2023/12/16 07:49:31;;;;;;;6.72;4.93;;;5.60;63.00;;;;;;5039657;28;20037;-86
2023/12/16 07:51:57;;;;;;;6.03;4.35;;;5.60;63.00;;;;;;5034882;28;20452;-83
2023/12/16 07:54:27;;;;;;;5.75;4.57;;;5.60;63.00;;;;;;5034627;28;20395;-85
2023/12/16 07:56:53;;;;;;;5.18;4.10;;;5.70;63.00;;;;;;5028960;28;20056;-84
2023/12/16 07:59:19;;;;;;;5.47;4.50;;;5.70;63.00;;;;;;5017042;28;20328;-84
2023/12/16 08:01:50;;;;;;;6.50;4.47;;;5.70;63.00;;;;;;5018327;28;20025;-85
2023/12/16 08:04:17;;;;;;;5.97;4.55;;;5.70;62.80;;;;;;5030663;28;20411;-84
2023/12/16 08:06:43;;;;;;;6.13;4.75;;;5.80;62.80;;;;;;5035335;28;20113;-84
2023/12/16 08:09:09;;;;;;;6.05;4.55;;;5.80;62.80;;;;;;5035341;28;20100;-84
2023/12/16 08:11:35;;;;;;;6.40;4.40;;;5.80;62.80;;;;;;5017899;28;20429;-84
2023/12/16 08:14:01;;;;;;;5.95;4.20;;;5.90;62.80;;;;;;5035644;28;20018;-84
2023/12/16 08:16:27;;;;;;;6.15;4.10;;;5.90;62.70;;;;;;5033731;28;20049;-85
2023/12/16 08:18:52;;;;;;;6.30;4.53;;;5.90;62.80;;;;;;5033353;28;20075;-84
2023/12/16 08:21:20;;;;;;;6.05;4.50;;;5.90;62.70;;;;;;5033293;28;20102;-82
2023/12/16 08:23:46;;;;;;;6.03;4.63;;;5.90;62.70;;;;;;5029391;28;20060;-84
2023/12/16 08:26:12;;;;;;;5.55;4.53;;;5.90;62.90;;;;;;5016796;28;20029;-82
2023/12/16 08:28:40;;;;;;;5.82;4.50;;;6.00;62.60;;;;;;5016999;28;20017;-84
2023/12/16 08:31:06;;;;;;;6.07;4.53;;;6.00;62.60;;;;;;5035632;28;20387;-84
2023/12/16 08:33:32;;;;;;;5.10;4.28;;;6.00;62.60;;;;;;5036596;28;20025;-84
2023/12/16 08:35:58;;;;;;;5.55;4.60;;;6.10;62.60;;;;;;5036215;28;20030;-84
2023/12/16 08:38:25;;;;;;;6.28;4.80;;;6.10;62.60;;;;;;5018941;28;20041;-84
2023/12/16 08:40:53;;;;;;;7.07;4.85;;;6.10;62.50;;;;;;5019341;28;20064;-83
2023/12/16 08:43:19;;;;;;;5.93;4.90;;;6.10;62.50;;;;;;5036352;28;20025;-82
2023/12/16 08:45:44;;;;;;;4.95;4.03;;;6.20;62.50;;;;;;5037147;28;20108;-84
2023/12/16 08:48:10;;;;;;;6.03;4.68;;;6.20;62.50;;;;;;5018465;28;20064;-84
2023/12/16 08:50:36;;;;;;;5.05;4.18;;;6.20;62.40;;;;;;5018362;28;20493;-84
2023/12/16 08:53:02;;;;;;;5.57;4.20;;;6.30;62.40;;;;;;5035446;28;20400;-84
2023/12/16 08:55:28;;;;;;;5.43;4.43;;;6.30;62.30;;;;;;5037270;28;20109;-84
2023/12/16 08:57:53;;;;;;;5.90;4.88;;;6.30;62.30;;;;;;5021625;28;20041;-85
2023/12/16 09:00:20;;;;;;;6.13;4.78;;;6.30;62.20;;;;;;5014628;28;20025;-84
2023/12/16 09:02:45;;;;;;;5.82;4.10;;;6.30;62.20;;;;;;5035536;28;20395;-85
2023/12/16 09:05:11;;;;;;;7.28;4.63;;;6.30;62.20;;;;;;5036401;28;20021;-83
2023/12/16 09:07:37;;;;;;;6.93;4.60;;;6.30;62.20;;;;;;5034999;28;20029;-83
2023/12/16 09:10:03;;;;;;;6.47;5.25;;;6.30;62.20;;;;;;5017781;28;20026;-83
2023/12/16 09:12:29;;;;;;;6.80;5.00;;;6.20;62.10;;;;;;5035558;28;20099;-84
2023/12/16 09:14:54;;;;;;;7.30;4.70;;;6.20;62.20;;;;;;5034914;28;20154;-84
2023/12/16 09:17:20;;;;;;;5.53;4.53;;;6.20;62.20;;;;;;5035118;28;20034;-84
2023/12/16 09:19:46;;;;;;;6.03;4.82;;;6.20;62.30;;;;;;5017805;28;20028;-83
2023/12/16 09:22:12;;;;;;;6.38;4.38;;;6.20;62.20;;;;;;5035231;28;20036;-83
2023/12/16 09:24:39;;;;;;;6.38;4.80;;;6.20;62.20;;;;;;5017801;28;20486;-83
2023/12/16 09:27:06;;;;;;;6.65;4.70;;;6.30;62.20;;;;;;5021496;28;20038;-84
2023/12/16 09:29:32;;;;;;;5.28;4.30;;;6.30;62.20;;;;;;5038404;28;20025;-84
2023/12/16 09:31:58;;;;;;;6.40;4.93;;;6.30;62.20;;;;;;5038592;28;20026;-85
2023/12/16 09:34:24;;;;;;;6.38;4.50;;;6.30;62.10;;;;;;5038142;28;20025;-84
2023/12/16 09:36:49;;;;;;;5.78;4.30;;;6.30;62.10;;;;;;5039032;28;20051;-84
2023/12/16 09:39:16;;;;;;;5.70;4.47;;;6.40;62.00;;;;;;5036646;28;20494;-84
2023/12/16 09:41:44;;;;;;;7.53;4.60;;;6.40;61.90;;;;;;5018710;28;20360;-84
2023/12/16 09:44:17;;;;;;;6.75;4.85;;;6.40;61.80;;;;;;5035816;28;20029;-84
2023/12/16 09:46:45;;;;;;;7.20;5.00;;;6.40;61.80;;;;;;5035762;28;20036;-83
2023/12/16 09:49:15;;;;;;;7.15;4.47;;;6.40;61.80;;;;;;5017547;28;20471;-84
2023/12/16 09:51:44;;;;;;;6.80;4.78;;;6.30;61.80;;;;;;5035484;28;20041;-84
2023/12/16 09:54:10;;;;;;;6.35;4.78;;;6.30;61.80;;;;;;5034698;28;20506;-82
2023/12/16 09:56:39;;;;;;;6.15;4.82;;;6.30;61.80;;;;;;5034798;28;20077;-84
2023/12/16 09:59:06;;;;;;;5.53;4.63;;;6.30;61.80;;;;;;5013227;28;20484;-84
2023/12/16 10:01:32;;;;;;;6.30;4.60;;;6.30;61.90;;;;;;5016995;28;20033;-83
2023/12/16 10:03:58;;;;;;;5.47;4.57;;;6.20;61.90;;;;;;5035049;28;20037;-84
2023/12/16 10:06:24;;;;;;;5.93;4.30;;;6.20;61.90;;;;;;5034516;28;20081;-84
2023/12/16 10:08:50;;;;;;;6.95;4.90;;;6.20;61.90;;;;;;5034587;28;20034;-84
2023/12/16 10:11:16;;;;;;;6.65;4.60;;;6.30;61.90;;;;;;5034492;28;20096;-83
2023/12/16 10:13:55;;;;;;;6.13;5.00;;;6.30;61.90;;;;;;5034867;28;20030;-84
2023/12/16 10:16:22;;;;;;;6.65;4.97;;;6.30;61.80;;;;;;5034050;28;20117;-84
2023/12/16 10:18:52;;;;;;;6.63;4.63;;;6.30;61.90;;;;;;5015433;28;20084;-84
2023/12/16 10:21:26;;;;;;;6.90;4.80;;;6.40;61.90;;;;;;5016199;28;20021;-85
2023/12/16 10:23:52;;;;;;;6.30;4.78;;;6.50;61.90;;;;;;5031397;28;20052;-85
2023/12/16 10:26:18;;;;;;;5.82;4.57;;;6.50;61.70;;;;;;5015783;28;20029;-83
2023/12/16 10:28:48;;;;;;;7.70;5.28;;;6.50;61.70;;;;;;5016127;28;20029;-84
2023/12/16 10:31:15;;;;;;;6.75;4.47;;;6.60;61.70;;;;;;5034106;28;20025;-84
2023/12/16 10:33:42;;;;;;;6.03;4.70;;;6.60;61.60;;;;;;5016563;28;20470;-85
2023/12/16 10:36:08;;;;;;;6.32;4.65;;;6.60;61.50;;;;;;5033757;28;20052;-84
2023/12/16 10:38:34;;;;;;;6.35;4.40;;;6.70;61.50;;;;;;5035475;28;20426;-83
2023/12/16 10:41:00;;;;;;;6.00;4.22;;;6.70;61.50;;;;;;5015714;28;20053;-84
2023/12/16 10:43:26;;;;;;;6.20;4.65;;;6.70;61.40;;;;;;5016084;28;20026;-84
2023/12/16 10:45:54;;;;;;;6.45;4.72;;;6.70;61.40;;;;;;5033782;28;20099;-85
2023/12/16 10:48:25;;;;;;;5.80;4.55;;;6.80;61.40;;;;;;5033628;28;20105;-83
2023/12/16 10:50:53;;;;;;;6.45;4.78;;;6.70;61.20;;;;;;5033799;28;20029;-84
2023/12/16 10:53:31;;;;;;;6.85;4.90;;;6.80;61.30;;;;;;5033539;28;20080;-84
2023/12/16 10:56:02;;;;;;;6.07;5.15;;;6.80;61.30;;;;;;5016056;28;20108;-85
2023/12/16 10:58:30;;;;;;;5.78;4.43;;;6.80;61.30;;;;;;5016459;28;20033;-85
2023/12/16 11:01:11;;;;;;;6.38;5.25;;;6.80;61.30;;;;;;5015929;28;20025;-84
2023/12/16 11:03:42;;;;;;;5.97;4.57;;;6.80;61.20;;;;;;5033330;28;20029;-84
2023/12/16 11:06:13;;;;;;;6.80;4.80;;;6.80;61.20;;;;;;5035686;28;20064;-84
2023/12/16 11:08:39;;;;;;;6.38;5.32;;;6.80;61.10;;;;;;5019178;28;20076;-83
2023/12/16 11:11:06;;;;;;;6.70;4.80;;;6.90;61.10;;;;;;5036674;28;20106;-83
2023/12/16 11:13:32;;;;;;;6.38;4.95;;;6.80;61.00;;;;;;5016503;28;20041;-83
2023/12/16 11:16:15;;;;;;;7.45;5.30;;;6.90;61.00;;;;;;5015906;28;20080;-83
2023/12/16 11:18:47;;;;;;;6.43;4.82;;;6.90;61.60;;;;;;5014007;28;20025;-84
2023/12/16 11:21:17;;;;;;;6.68;5.05;;;6.80;61.00;;;;;;5016252;28;20037;-82
2023/12/16 11:23:45;;;;;;;6.22;4.93;;;6.80;61.00;;;;;;5033851;28;20025;-82
2023/12/16 11:26:11;;;;;;;8.35;5.22;;;6.80;61.00;;;;;;5012489;28;20041;-82
2023/12/16 11:28:37;;;;;;;6.40;4.82;;;6.80;61.00;;;;;;5015482;28;20481;-82
2023/12/16 11:31:03;;;;;;;6.72;5.22;;;6.80;60.90;;;;;;5018674;28;20057;-82
2023/12/16 11:33:43;;;;;;;7.22;4.95;;;6.80;61.00;;;;;;5020020;28;20032;-82
2023/12/16 11:36:09;;;;;;;6.43;5.30;;;6.80;61.00;;;;;;5020003;28;20073;-82
2023/12/16 11:38:35;;;;;;;6.68;5.22;;;6.80;61.10;;;;;;5037545;28;20041;-82
2023/12/16 11:41:01;;;;;;;5.72;4.75;;;6.80;61.10;;;;;;5037952;28;20027;-82
2023/12/16 11:43:49;;;;;;;6.68;4.90;;;6.80;61.00;;;;;;5038139;28;20029;-83
2023/12/16 11:46:37;;;;;;;6.88;5.30;;;6.80;61.00;;;;;;5020582;28;20036;-82
2023/12/16 11:49:04;;;;;;;6.30;5.00;;;6.90;61.00;;;;;;5037723;28;20035;-83
2023/12/16 11:51:34;;;;;;;6.53;4.93;;;6.90;61.00;;;;;;5020328;28;20029;-82
2023/12/16 11:54:01;;;;;;;6.15;4.65;;;6.90;61.00;;;;;;5037880;28;20514;-82
2023/12/16 11:56:27;;;;;;;6.93;5.30;;;6.90;60.90;;;;;;5037956;28;20033;-82
2023/12/16 11:58:57;;;;;;;8.50;5.57;;;6.90;60.90;;;;;;5019849;28;20034;-82
2023/12/16 12:01:35;;;;;;;6.25;4.80;;;6.80;60.80;;;;;;5036919;28;20104;-83
2023/12/16 12:04:02;;;;;;;6.72;4.75;;;6.80;60.90;;;;;;5036892;28;20383;-82
2023/12/16 12:06:29;;;;;;;7.75;5.03;;;6.70;60.90;;;;;;5036371;28;20030;-83
2023/12/16 12:08:55;;;;;;;6.88;5.20;;;6.70;60.90;;;;;;5019657;28;20395;-82
2023/12/16 12:11:21;;;;;;;6.95;5.10;;;6.70;61.00;;;;;;5037210;28;20030;-83
2023/12/16 12:13:51;;;;;;;7.00;5.07;;;6.60;61.00;;;;;;5036744;28;20051;-83
2023/12/16 12:16:17;;;;;;;6.93;4.72;;;6.60;61.70;;;;;;5018873;28;20041;-82
2023/12/16 12:18:43;;;;;;;7.25;5.15;;;6.60;61.20;;;;;;5037043;28;20107;-82
2023/12/16 12:21:12;;;;;;;6.80;5.00;;;6.60;61.20;;;;;;5002183;28;20467;-83
2023/12/16 12:23:38;;;;;;;7.47;5.53;;;6.60;61.20;;;;;;5018562;28;20036;-83
2023/12/16 12:26:04;;;;;;;7.13;5.45;;;6.60;61.30;;;;;;5036363;28;20101;-83
2023/12/16 12:28:30;;;;;;;6.75;4.97;;;6.60;61.20;;;;;;5018491;28;20030;-83
2023/12/16 12:31:07;;;;;;;6.00;4.93;;;6.50;61.20;;;;;;5036052;28;20060;-81
2023/12/16 12:33:33;;;;;;;6.07;4.75;;;6.60;61.30;;;;;;5037897;28;20025;-82
2023/12/16 12:36:00;;;;;;;7.75;5.63;;;6.50;61.20;;;;;;5018474;28;20034;-83
2023/12/16 12:38:27;;;;;;;6.38;5.15;;;6.50;61.30;;;;;;5018765;28;20116;-82
2023/12/16 12:41:03;;;;;;;7.22;5.28;;;6.50;61.30;;;;;;5036662;28;20037;-83
2023/12/16 12:43:35;;;;;;;8.50;6.05;;;6.50;61.30;;;;;;5017299;28;20032;-83
2023/12/16 12:46:08;;;;;;;7.57;5.43;;;6.50;61.40;;;;;;5036363;28;20029;-83
2023/12/16 12:48:34;;;;;;;6.88;5.05;;;6.50;61.30;;;;;;5035911;28;20025;-83
2023/12/16 12:51:11;;;;;;;7.50;5.38;;;6.50;61.40;;;;;;5035688;28;20108;-83
2023/12/16 12:53:37;;;;;;;7.55;5.70;;;6.50;61.40;;;;;;5016323;28;20483;-83
2023/12/16 12:56:05;;;;;;;6.72;5.00;;;6.40;61.40;;;;;;5036294;28;20517;-83